createdAt,value
2018-04-24T00:00:52.448Z,11.87
2018-04-24T00:03:20.868Z,11.81
2018-04-24T00:05:50.185Z,11.71
2018-04-24T00:08:18.581Z,11.79
2018-04-24T00:10:47.019Z,11.75
2018-04-24T00:13:15.441Z,11.76
2018-04-24T00:15:43.810Z,11.69
2018-04-24T00:18:12.234Z,11.79
2018-04-24T00:20:41.377Z,11.85
2018-04-24T00:23:10.522Z,11.84
2018-04-24T00:25:38.975Z,11.90
2018-04-24T00:28:07.365Z,11.86
2018-04-24T00:30:35.737Z,11.65
2018-04-24T00:33:04.881Z,11.71
2018-04-24T00:35:33.301Z,11.65
2018-04-24T00:38:01.686Z,11.59
2018-04-24T00:40:30.077Z,11.45
2018-04-24T00:42:59.226Z,11.44
2018-04-24T00:45:27.721Z,11.57
2018-04-24T00:47:56.102Z,11.37
2018-04-24T00:50:24.503Z,11.33
2018-04-24T00:52:52.880Z,11.19
2018-04-24T00:55:21.284Z,11.18
2018-04-24T00:57:49.683Z,11.27
2018-04-24T01:00:18.819Z,11.03
2018-04-24T01:02:47.219Z,10.83
2018-04-24T01:05:15.602Z,10.74
2018-04-24T01:07:43.981Z,10.85
2018-04-24T01:10:12.366Z,11.05
2018-04-24T01:12:40.750Z,10.92
2018-04-24T01:15:09.121Z,10.81
2018-04-24T01:17:37.503Z,10.89
2018-04-24T01:20:05.915Z,10.70
2018-04-24T01:22:34.298Z,10.69
2018-04-24T01:25:02.681Z,10.91
2018-04-24T01:27:31.845Z,10.86
2018-04-24T01:30:00.247Z,10.72
2018-04-24T01:32:28.655Z,10.72
2018-04-24T01:34:57.034Z,10.55
2018-04-24T01:37:25.433Z,10.48
2018-04-24T01:39:53.843Z,10.37
2018-04-24T01:42:22.981Z,10.35
2018-04-24T01:44:51.370Z,10.25
2018-04-24T01:47:19.752Z,10.22
2018-04-24T01:49:48.227Z,10.11
2018-04-24T01:52:16.622Z,10.09
2018-04-24T01:54:44.996Z,9.87
2018-04-24T01:57:13.372Z,9.74
2018-04-24T01:59:41.766Z,9.82
2018-04-24T02:02:10.162Z,9.92
2018-04-24T02:04:38.523Z,9.80
2018-04-24T02:07:06.921Z,9.88
2018-04-24T02:09:36.203Z,9.93
2018-04-24T02:12:04.608Z,9.92
2018-04-24T02:14:32.967Z,9.90
2018-04-24T02:17:01.362Z,10.09
2018-04-24T02:19:29.805Z,10.19
2018-04-24T02:21:58.958Z,10.03
2018-04-24T02:24:27.346Z,10.16
2018-04-24T02:26:55.741Z,10.20
2018-04-24T02:29:24.217Z,10.15
2018-04-24T02:31:52.586Z,10.10
2018-04-24T02:34:21.006Z,10.17
2018-04-24T02:36:49.484Z,10.15
2018-04-24T02:39:18.551Z,9.94
2018-04-24T02:41:46.934Z,9.93
2018-04-24T02:44:15.318Z,9.98
2018-04-24T02:46:43.768Z,10.04
2018-04-24T02:49:12.194Z,9.93
2018-04-24T02:51:40.565Z,10.07
2018-04-24T02:54:08.947Z,9.95
2018-04-24T02:56:37.318Z,9.96
2018-04-24T02:59:05.708Z,9.96
2018-04-24T03:01:34.051Z,10.04
2018-04-24T03:04:03.189Z,9.99
2018-04-24T03:06:31.672Z,10.14
2018-04-24T03:09:00.066Z,10.03
2018-04-24T03:11:28.397Z,9.97
2018-04-24T03:13:57.535Z,10.00
2018-04-24T03:16:25.913Z,10.16
2018-04-24T03:18:54.282Z,10.24
2018-04-24T03:21:22.646Z,10.15
2018-04-24T03:23:51.784Z,10.04
2018-04-24T03:26:20.187Z,9.99
2018-04-24T03:28:48.569Z,9.89
2018-04-24T03:31:17.003Z,9.90
2018-04-24T03:33:46.236Z,9.80
2018-04-24T03:36:15.402Z,9.77
2018-04-24T03:38:44.536Z,9.67
2018-04-24T03:41:12.940Z,9.73
2018-04-24T03:43:41.313Z,9.84
2018-04-24T03:46:09.686Z,10.00
2018-04-24T03:48:38.059Z,10.05
2018-04-24T03:51:06.424Z,9.87
2018-04-24T03:53:35.569Z,9.79
2018-04-24T03:56:03.935Z,9.75
2018-04-24T03:58:32.316Z,9.76
2018-04-24T04:01:00.794Z,9.75
2018-04-24T04:03:29.290Z,9.93
2018-04-24T04:05:57.707Z,9.96
2018-04-24T04:08:26.117Z,9.97
2018-04-24T04:10:55.251Z,10.02
2018-04-24T04:13:23.637Z,10.01
2018-04-24T04:15:52.015Z,10.00
2018-04-24T04:18:37.918Z,10.10
2018-04-24T04:21:24.678Z,10.17
2018-04-24T04:24:10.939Z,9.99
2018-04-24T04:26:39.299Z,10.11
2018-04-24T04:29:07.694Z,9.98
2018-04-24T04:31:36.081Z,10.09
2018-04-24T04:34:04.449Z,10.13
2018-04-24T04:36:32.812Z,10.17
2018-04-24T04:39:02.134Z,10.14
2018-04-24T04:41:30.569Z,10.11
2018-04-24T04:43:59.702Z,10.32
2018-04-24T04:46:28.101Z,10.22
2018-04-24T04:48:56.489Z,10.34
2018-04-24T04:51:24.883Z,10.23
2018-04-24T04:53:53.257Z,10.31
2018-04-24T04:56:21.674Z,10.54
2018-04-24T04:58:50.839Z,10.45
2018-04-24T05:01:19.273Z,10.56
2018-04-24T05:03:48.426Z,10.46
2018-04-24T05:06:17.564Z,10.49
2018-04-24T05:08:46.721Z,10.58
2018-04-24T05:11:15.150Z,10.88
2018-04-24T05:13:43.592Z,10.98
2018-04-24T05:16:11.982Z,10.73
2018-04-24T05:18:40.374Z,10.73
2018-04-24T05:21:08.780Z,10.95
2018-04-24T05:23:37.938Z,10.89
2018-04-24T05:26:07.083Z,11.03
2018-04-24T05:28:36.241Z,10.98
2018-04-24T05:31:04.621Z,10.96
2018-04-24T05:33:33.029Z,11.22
2018-04-24T05:36:01.462Z,11.25
2018-04-24T05:38:30.761Z,11.48
2018-04-24T05:40:59.168Z,11.43
2018-04-24T05:43:27.569Z,11.59
2018-04-24T05:45:55.950Z,11.90
2018-04-24T05:48:24.361Z,11.74
2018-04-24T05:50:53.560Z,11.61
2018-04-24T05:53:22.710Z,11.50
2018-04-24T05:55:51.145Z,11.82
2018-04-24T05:58:19.544Z,11.77
2018-04-24T06:00:48.768Z,11.73
2018-04-24T06:03:17.284Z,11.92
2018-04-24T06:05:45.744Z,12.13
2018-04-24T06:08:14.197Z,12.10
2018-04-24T06:10:42.550Z,12.02
2018-04-24T06:13:10.953Z,11.98
2018-04-24T06:15:39.341Z,12.05
2018-04-24T06:18:08.528Z,12.65
2018-04-24T06:20:36.938Z,12.54
2018-04-24T06:23:06.107Z,12.21
2018-04-24T06:25:34.501Z,12.62
2018-04-24T06:28:02.873Z,12.80
2018-04-24T06:30:31.258Z,12.30
2018-04-24T06:32:59.709Z,12.40
2018-04-24T06:35:28.106Z,13.00
2018-04-24T06:37:56.563Z,13.42
2018-04-24T06:40:24.942Z,13.06
2018-04-24T06:42:53.337Z,13.07
2018-04-24T06:45:22.484Z,13.24
2018-04-24T06:47:50.942Z,12.90
2018-04-24T06:50:19.302Z,13.06
2018-04-24T06:52:47.682Z,12.82
2018-04-24T06:55:16.103Z,13.16
2018-04-24T06:57:44.584Z,13.31
2018-04-24T07:00:12.977Z,13.20
2018-04-24T07:02:41.351Z,12.98
2018-04-24T07:05:10.344Z,13.13
2018-04-24T07:07:38.716Z,13.66
2018-04-24T07:10:07.122Z,13.43
2018-04-24T07:12:35.526Z,13.13
2018-04-24T07:15:04.692Z,13.49
2018-04-24T07:17:33.105Z,13.83
2018-04-24T07:20:02.270Z,14.24
2018-04-24T07:22:30.673Z,14.45
2018-04-24T07:24:59.110Z,14.02
2018-04-24T07:27:27.510Z,14.58
2018-04-24T07:29:55.902Z,13.71
2018-04-24T07:32:24.272Z,14.35
2018-04-24T07:34:52.671Z,14.44
2018-04-24T07:37:21.153Z,14.85
2018-04-24T07:39:49.533Z,14.26
2018-04-24T07:42:17.916Z,14.26
2018-04-24T07:44:46.306Z,14.25
2018-04-24T07:47:14.690Z,13.82
2018-04-24T07:49:43.077Z,13.83
2018-04-24T07:52:11.453Z,14.50
2018-04-24T07:54:39.843Z,14.48
2018-04-24T07:57:08.285Z,14.34
2018-04-24T07:59:36.660Z,13.97
2018-04-24T08:02:05.828Z,14.68
2018-04-24T08:04:34.199Z,14.13
2018-04-24T08:07:02.615Z,14.27
2018-04-24T08:09:31.763Z,13.70
2018-04-24T08:12:00.205Z,14.14
2018-04-24T08:14:29.385Z,14.35
2018-04-24T08:16:57.787Z,14.41
2018-04-24T08:19:26.956Z,14.21
2018-04-24T08:21:55.349Z,14.10
2018-04-24T08:24:23.754Z,13.76
2018-04-24T08:26:52.927Z,14.30
2018-04-24T08:29:21.363Z,14.46
2018-04-24T08:31:49.849Z,13.98
2018-04-24T08:34:18.234Z,14.22
2018-04-24T08:36:46.642Z,14.28
2018-04-24T08:39:15.026Z,14.30
2018-04-24T08:41:43.422Z,14.91
2018-04-24T08:44:11.837Z,15.00
2018-04-24T08:46:40.998Z,14.52
2018-04-24T08:49:10.162Z,14.72
2018-04-24T08:51:38.541Z,14.79
2018-04-24T08:54:06.921Z,14.89
2018-04-24T08:56:35.354Z,14.61
2018-04-24T08:59:03.898Z,14.92
2018-04-24T09:01:32.318Z,14.96
2018-04-24T09:04:00.719Z,14.86
2018-04-24T09:06:29.133Z,14.32
2018-04-24T09:08:58.287Z,14.34
2018-04-24T09:11:26.697Z,14.24
2018-04-24T09:13:55.086Z,14.48
2018-04-24T09:16:36.619Z,14.86
2018-04-24T09:19:05.022Z,14.62
2018-04-24T09:21:33.421Z,14.68
2018-04-24T09:24:01.825Z,15.21
2018-04-24T09:26:30.989Z,14.81
2018-04-24T09:29:00.171Z,15.04
2018-04-24T09:31:33.961Z,15.41
2018-04-24T09:34:02.358Z,15.12
2018-04-24T09:36:30.745Z,14.66
2018-04-24T09:38:59.161Z,15.06
2018-04-24T09:41:27.527Z,14.95
2018-04-24T09:43:55.977Z,14.48
2018-04-24T09:46:24.301Z,14.88
2018-04-24T09:48:52.789Z,14.78
2018-04-24T09:51:21.154Z,15.16
2018-04-24T09:53:49.518Z,15.19
2018-04-24T09:56:17.927Z,15.17
2018-04-24T09:58:46.333Z,14.93
2018-04-24T10:01:14.742Z,15.10
2018-04-24T10:03:43.938Z,15.37
2018-04-24T10:06:13.078Z,15.83
2018-04-24T10:08:41.474Z,15.79
2018-04-24T10:11:09.926Z,15.29
2018-04-24T10:13:38.324Z,15.84
2018-04-24T10:16:06.799Z,15.45
2018-04-24T10:18:35.176Z,16.29
2018-04-24T10:21:03.601Z,16.54
2018-04-24T10:23:31.982Z,15.84
2018-04-24T10:26:00.397Z,15.97
2018-04-24T10:28:29.552Z,16.29
2018-04-24T10:30:57.973Z,16.71
2018-04-24T10:33:26.354Z,15.78
2018-04-24T10:35:54.788Z,16.42
2018-04-24T10:38:23.171Z,15.95
2018-04-24T10:40:51.553Z,15.85
2018-04-24T10:43:19.966Z,15.87
2018-04-24T10:45:48.365Z,15.53
2018-04-24T10:48:16.736Z,15.88
2018-04-24T10:50:45.185Z,16.69
2018-04-24T10:53:13.556Z,16.97
2018-04-24T10:55:41.978Z,15.98
2018-04-24T10:58:10.388Z,16.77
2018-04-24T11:00:38.799Z,16.51
2018-04-24T11:03:07.169Z,17.14
2018-04-24T11:05:35.534Z,17.48
2018-04-24T11:08:03.936Z,17.57
2018-04-24T11:10:32.324Z,18.14
2018-04-24T11:13:01.513Z,18.91
2018-04-24T11:15:29.984Z,19.62
2018-04-24T11:17:58.353Z,18.50
2018-04-24T11:20:26.689Z,18.51
2018-04-24T11:22:55.073Z,19.24
2018-04-24T11:25:23.468Z,18.80
2018-04-24T11:27:51.836Z,18.47
2018-04-24T11:30:21.071Z,19.91
2018-04-24T11:32:49.389Z,19.61
2018-04-24T11:35:17.785Z,20.76
2018-04-24T11:37:46.930Z,20.26
2018-04-24T11:40:15.331Z,20.02
2018-04-24T11:42:43.690Z,20.45
2018-04-24T11:45:12.069Z,19.40
2018-04-24T11:47:40.457Z,19.82
2018-04-24T11:50:08.858Z,19.90
2018-04-24T11:52:37.332Z,20.71
2018-04-24T11:55:05.763Z,20.76
2018-04-24T11:57:34.163Z,21.42
2018-04-24T12:00:03.295Z,21.62
2018-04-24T12:02:31.787Z,20.49
2018-04-24T12:05:00.102Z,20.30
2018-04-24T12:07:28.448Z,20.04
2018-04-24T12:09:56.928Z,20.17
2018-04-24T12:12:26.037Z,19.90
2018-04-24T12:14:54.541Z,19.05
2018-04-24T12:17:22.943Z,19.36
2018-04-24T12:19:51.319Z,19.22
2018-04-24T12:22:19.741Z,19.38
2018-04-24T12:24:48.927Z,19.47
2018-04-24T12:27:17.289Z,19.45
2018-04-24T12:29:45.692Z,19.45
2018-04-24T12:32:14.882Z,19.40
2018-04-24T12:34:43.221Z,19.60
2018-04-24T12:37:11.591Z,20.00
2018-04-24T12:39:40.096Z,19.89
2018-04-24T12:42:08.506Z,19.81
2018-04-24T12:44:36.875Z,19.72
2018-04-24T12:47:05.273Z,19.63
2018-04-24T12:49:33.665Z,19.74
2018-04-24T12:52:02.083Z,20.06
2018-04-24T12:54:31.248Z,19.74
2018-04-24T12:56:59.645Z,19.66
2018-04-24T12:59:28.789Z,19.43
2018-04-24T13:01:57.187Z,18.98
2018-04-24T13:04:25.605Z,18.92
2018-04-24T13:06:54.000Z,18.58
2018-04-24T13:09:23.182Z,18.02
2018-04-24T13:11:51.564Z,17.74
2018-04-24T13:14:19.941Z,17.48
2018-04-24T13:16:48.343Z,17.79
2018-04-24T13:19:16.727Z,17.82
2018-04-24T13:21:45.090Z,18.11
2018-04-24T13:24:13.590Z,18.44
2018-04-24T13:26:42.012Z,18.06
2018-04-24T13:29:10.409Z,18.83
2018-04-24T13:31:38.799Z,19.39
2018-04-24T13:34:07.164Z,19.97
2018-04-24T13:36:35.586Z,19.62
2018-04-24T13:39:04.007Z,20.70
2018-04-24T13:41:33.172Z,20.24
2018-04-24T13:44:01.561Z,20.89
2018-04-24T13:46:29.978Z,21.10
2018-04-24T13:48:59.195Z,20.93
2018-04-24T13:51:27.533Z,20.88
2018-04-24T13:53:55.929Z,20.49
2018-04-24T13:56:24.379Z,20.49
2018-04-24T13:58:52.786Z,20.48
2018-04-24T14:01:21.178Z,19.85
2018-04-24T14:03:49.602Z,20.25
2018-04-24T14:06:18.007Z,20.31
2018-04-24T14:08:46.566Z,19.95
2018-04-24T14:11:14.958Z,19.88
2018-04-24T14:13:43.399Z,20.06
2018-04-24T14:16:11.774Z,19.30
2018-04-24T14:18:40.181Z,20.08
2018-04-24T14:21:09.356Z,20.56
2018-04-24T14:23:37.730Z,20.83
2018-04-24T14:26:06.196Z,20.58
2018-04-24T14:28:34.613Z,20.28
2018-04-24T14:31:02.988Z,20.63
2018-04-24T14:33:32.118Z,21.73
2018-04-24T14:36:01.346Z,21.64
2018-04-24T14:38:29.727Z,21.53
2018-04-24T14:40:58.126Z,21.03
2018-04-24T14:43:26.516Z,21.25
2018-04-24T14:45:54.922Z,20.20
2018-04-24T14:48:23.322Z,20.53
2018-04-24T14:50:51.693Z,20.05
2018-04-24T14:53:20.089Z,19.78
2018-04-24T14:55:48.462Z,19.51
2018-04-24T14:58:16.866Z,19.37
2018-04-24T15:00:45.227Z,19.46
2018-04-24T15:03:13.762Z,19.05
2018-04-24T15:05:42.254Z,18.80
2018-04-24T15:08:10.646Z,18.75
2018-04-24T15:10:39.012Z,18.97
2018-04-24T15:13:07.385Z,19.06
2018-04-24T15:15:36.529Z,19.20
2018-04-24T15:18:04.925Z,19.36
2018-04-24T15:20:33.512Z,19.41
2018-04-24T15:23:02.661Z,19.86
2018-04-24T15:25:31.061Z,19.84
2018-04-24T15:27:59.438Z,19.50
2018-04-24T15:30:27.801Z,19.07
2018-04-24T15:32:57.020Z,19.46
2018-04-24T15:35:25.391Z,19.21
2018-04-24T15:37:54.560Z,18.89
2018-04-24T15:40:22.936Z,19.05
2018-04-24T15:42:51.327Z,19.06
2018-04-24T15:45:19.705Z,19.50
2018-04-24T15:47:48.092Z,18.96
2018-04-24T15:50:16.498Z,19.04
2018-04-24T15:52:45.636Z,19.27
2018-04-24T15:55:14.007Z,19.98
2018-04-24T15:57:42.391Z,20.13
2018-04-24T16:00:10.793Z,19.94
2018-04-24T16:02:39.170Z,19.72
2018-04-24T16:05:07.606Z,19.49
2018-04-24T16:07:36.738Z,19.72
2018-04-24T16:10:05.114Z,19.94
2018-04-24T16:12:33.559Z,20.14
2018-04-24T16:15:01.997Z,19.88
2018-04-24T16:17:30.397Z,19.70
2018-04-24T16:19:58.774Z,19.26
2018-04-24T16:22:27.141Z,19.00
2018-04-24T16:24:55.547Z,18.92
2018-04-24T16:27:23.934Z,19.94
2018-04-24T16:29:52.286Z,20.12
2018-04-24T16:32:20.658Z,19.94
2018-04-24T16:34:49.050Z,20.07
2018-04-24T16:37:17.444Z,19.51
2018-04-24T16:39:45.872Z,19.21
2018-04-24T16:42:14.372Z,19.25
2018-04-24T16:44:43.527Z,19.01
2018-04-24T16:47:11.917Z,18.41
2018-04-24T16:49:40.266Z,18.29
2018-04-24T16:52:08.659Z,18.09
2018-04-24T16:54:37.819Z,18.19
2018-04-24T16:57:06.221Z,18.01
2018-04-24T16:59:35.394Z,18.25
2018-04-24T17:02:03.918Z,18.17
2018-04-24T17:04:32.414Z,18.20
2018-04-24T17:07:00.800Z,18.26
2018-04-24T17:09:29.210Z,18.26
2018-04-24T17:11:57.656Z,18.27
2018-04-24T17:14:26.016Z,18.06
2018-04-24T17:16:55.245Z,18.20
2018-04-24T17:19:23.624Z,18.13
2018-04-24T17:21:52.086Z,17.93
2018-04-24T17:24:21.280Z,17.97
2018-04-24T17:26:50.581Z,17.93
2018-04-24T17:29:18.965Z,17.73
2018-04-24T17:31:48.202Z,17.62
2018-04-24T17:34:16.604Z,17.25
2018-04-24T17:36:45.017Z,17.30
2018-04-24T17:39:13.437Z,17.12
2018-04-24T17:41:42.622Z,16.99
2018-04-24T17:44:11.009Z,16.95
2018-04-24T17:46:40.407Z,16.90
2018-04-24T17:49:08.865Z,16.98
2018-04-24T17:51:37.257Z,16.88
2018-04-24T17:54:05.662Z,17.01
2018-04-24T17:56:34.069Z,17.01
2018-04-24T17:59:03.223Z,16.93
2018-04-24T18:01:31.622Z,16.74
2018-04-24T18:04:00.130Z,16.54
2018-04-24T18:06:29.294Z,16.52
2018-04-24T18:08:57.711Z,16.24
2018-04-24T18:11:26.899Z,15.97
2018-04-24T18:13:55.280Z,15.85
2018-04-24T18:16:23.669Z,15.91
2018-04-24T18:18:52.066Z,15.80
2018-04-24T18:21:21.262Z,15.56
2018-04-24T18:23:50.432Z,15.52
2018-04-24T18:26:19.639Z,15.47
2018-04-24T18:28:48.010Z,15.39
2018-04-24T18:31:16.417Z,15.40
2018-04-24T18:33:44.887Z,15.41
2018-04-24T18:36:13.280Z,15.37
2018-04-24T18:38:41.668Z,15.38
2018-04-24T18:41:10.074Z,15.32
2018-04-24T18:43:39.233Z,15.27
2018-04-24T18:46:07.641Z,15.22
2018-04-24T18:48:36.039Z,15.19
2018-04-24T18:51:05.262Z,15.18
2018-04-24T18:53:33.671Z,15.16
2018-04-24T18:56:02.127Z,15.16
2018-04-24T18:58:30.529Z,15.14
2018-04-24T19:00:58.916Z,15.19
2018-04-24T19:03:27.342Z,15.22
2018-04-24T19:05:55.714Z,15.33
2018-04-24T19:08:24.143Z,15.28
2018-04-24T19:10:52.536Z,15.23
2018-04-24T19:13:20.950Z,15.19
2018-04-24T19:15:49.320Z,15.15
2018-04-24T19:18:17.697Z,15.12
2018-04-24T19:20:46.174Z,15.09
2018-04-24T19:23:14.594Z,15.08
2018-04-24T19:25:43.754Z,15.14
2018-04-24T19:28:12.922Z,15.17
2018-04-24T19:30:42.081Z,15.17
2018-04-24T19:33:10.518Z,15.09
2018-04-24T19:35:39.026Z,15.07
2018-04-24T19:38:07.506Z,15.04
2018-04-24T19:40:41.531Z,15.03
2018-04-24T19:43:10.027Z,15.00
2018-04-24T19:45:38.423Z,14.97
2018-04-24T19:48:08.374Z,14.97
2018-04-24T19:50:37.522Z,14.99
2018-04-24T19:53:05.879Z,15.00
2018-04-24T19:55:34.270Z,15.00
2018-04-24T19:58:02.862Z,15.05
2018-04-24T20:00:31.239Z,15.02
2018-04-24T20:02:59.641Z,15.01
2018-04-24T20:05:28.015Z,15.00
2018-04-24T20:07:56.419Z,15.01
2018-04-24T20:10:24.802Z,15.07
2018-04-24T20:12:53.282Z,15.11
2018-04-24T20:15:21.704Z,15.14
2018-04-24T20:17:50.109Z,15.14
2018-04-24T20:20:19.279Z,15.15
2018-04-24T20:22:47.697Z,15.15
2018-04-24T20:25:16.862Z,15.16
2018-04-24T20:27:45.276Z,15.15
2018-04-24T20:30:14.454Z,15.17
2018-04-24T20:32:42.822Z,15.16
2018-04-24T20:35:11.260Z,15.14
2018-04-24T20:37:39.646Z,15.13
2018-04-24T20:40:08.023Z,15.11
2018-04-24T20:42:36.413Z,15.07
2018-04-24T20:45:04.812Z,15.07
2018-04-24T20:47:33.193Z,15.10
2018-04-24T20:50:01.617Z,15.12
2018-04-24T20:52:30.040Z,15.15
2018-04-24T20:54:58.439Z,15.18
2018-04-24T20:57:26.855Z,15.18
2018-04-24T20:59:55.247Z,15.16
2018-04-24T21:02:23.641Z,15.12
2018-04-24T21:04:52.061Z,15.09
2018-04-24T21:07:20.580Z,15.10
2018-04-24T21:09:48.960Z,15.10
2018-04-24T21:12:17.371Z,15.07
2018-04-24T21:14:45.754Z,15.07
2018-04-24T21:17:14.164Z,15.05
2018-04-24T21:19:43.321Z,14.98
2018-04-24T21:22:11.766Z,14.97
2018-04-24T21:24:40.240Z,14.99
2018-04-24T21:27:08.646Z,14.96
2018-04-24T21:29:37.027Z,14.98
2018-04-24T21:32:05.410Z,15.01
2018-04-24T21:34:33.869Z,15.17
2018-04-24T21:37:03.012Z,15.19
2018-04-24T21:39:31.422Z,15.19
2018-04-24T21:41:59.866Z,15.21
2018-04-24T21:44:28.274Z,15.23
2018-04-24T21:46:56.665Z,15.22
2018-04-24T21:49:25.092Z,15.26
2018-04-24T21:51:54.310Z,15.22
2018-04-24T21:54:22.748Z,15.19
2018-04-24T21:56:51.135Z,15.28
2018-04-24T21:59:19.555Z,15.29
2018-04-24T22:01:48.018Z,15.34
2018-04-24T22:04:16.386Z,15.44
2018-04-24T22:06:44.793Z,15.54
2018-04-24T22:09:13.958Z,15.63
2018-04-24T22:11:42.345Z,15.52
2018-04-24T22:14:10.743Z,15.41
2018-04-24T22:16:39.174Z,15.31
2018-04-24T22:19:07.583Z,15.18
2018-04-24T22:21:36.019Z,15.11
2018-04-24T22:24:04.393Z,14.96
2018-04-24T22:26:32.795Z,14.94
2018-04-24T22:29:01.191Z,15.04
2018-04-24T22:31:29.599Z,15.25
2018-04-24T22:33:58.252Z,15.40
2018-04-24T22:36:26.728Z,15.63
2018-04-24T22:38:55.158Z,15.69
2018-04-24T22:41:23.565Z,15.67
2018-04-24T22:43:53.041Z,15.87
2018-04-24T22:46:21.443Z,15.92
2018-04-24T22:48:49.846Z,15.98
2018-04-24T22:51:18.991Z,15.98
2018-04-24T22:53:47.405Z,15.96
2018-04-24T22:56:15.794Z,16.04
2018-04-24T22:58:44.206Z,15.91
2018-04-24T23:01:13.371Z,15.91
2018-04-24T23:03:41.799Z,15.93
2018-04-24T23:06:10.218Z,16.00
2018-04-24T23:08:38.613Z,15.93
2018-04-24T23:11:24.791Z,16.12
2018-04-24T23:14:10.840Z,16.07
2018-04-24T23:16:57.775Z,16.11
2018-04-24T23:19:43.829Z,16.11
2018-04-24T23:22:34.490Z,16.21
2018-04-24T23:25:02.858Z,16.04
2018-04-24T23:27:31.252Z,16.08
2018-04-24T23:29:59.643Z,15.95
2018-04-24T23:32:28.030Z,16.02
2018-04-24T23:34:56.408Z,15.91
2018-04-24T23:37:24.817Z,15.98
2018-04-24T23:39:53.960Z,16.05
2018-04-24T23:42:22.332Z,15.97
2018-04-24T23:44:50.687Z,15.92
2018-04-24T23:47:19.826Z,15.97
2018-04-24T23:49:48.214Z,15.85
2018-04-24T23:52:16.671Z,15.84
2018-04-24T23:54:45.066Z,15.83
2018-04-24T23:57:13.435Z,15.92
2018-04-24T23:59:41.859Z,15.86
